sensor_id;sensor_type;location;lat;lon;timestamp;pressure;altitude;pressure_sealevel;temperature;humidity
48553;BME280;34335;51.566;6.994;2023-08-12T00:01:02;101173.41;;;22.61;100.00
48553;BME280;34335;51.566;6.994;2023-08-12T00:03:28;101167.78;;;22.48;100.00
48553;BME280;34335;51.566;6.994;2023-08-12T00:05:53;101166.91;;;22.48;100.00
48553;BME280;34335;51.566;6.994;2023-08-12T00:08:19;101164.94;;;22.53;100.00
48553;BME280;34335;51.566;6.994;2023-08-12T00:10:45;101157.84;;;22.53;100.00
48553;BME280;34335;51.566;6.994;2023-08-12T00:13:10;101158.72;;;22.54;100.00
48553;BME280;34335;51.566;6.994;2023-08-12T00:15:35;101153.41;;;22.54;100.00
48553;BME280;34335;51.566;6.994;2023-08-12T00:18:01;101157.00;;;22.53;100.00
48553;BME280;34335;51.566;6.994;2023-08-12T00:20:29;101161.41;;;22.52;100.00
48553;BME280;34335;51.566;6.994;2023-08-12T00:22:55;101165.00;;;22.51;100.00
48553;BME280;34335;51.566;6.994;2023-08-12T00:25:20;101160.69;;;22.49;100.00
48553;BME280;34335;51.566;6.994;2023-08-12T00:27:45;101161.56;;;22.49;100.00
48553;BME280;34335;51.566;6.994;2023-08-12T00:30:11;101154.66;;;22.45;100.00
48553;BME280;34335;51.566;6.994;2023-08-12T00:32:36;101162.81;;;22.40;100.00
48553;BME280;34335;51.566;6.994;2023-08-12T00:35:02;101157.44;;;22.42;100.00
48553;BME280;34335;51.566;6.994;2023-08-12T00:37:28;101158.41;;;22.41;100.00
48553;BME280;34335;51.566;6.994;2023-08-12T00:39:53;101159.50;;;22.35;100.00
48553;BME280;34335;51.566;6.994;2023-08-12T00:42:18;101152.38;;;22.36;100.00
48553;BME280;34335;51.566;6.994;2023-08-12T00:44:44;101151.47;;;22.37;100.00
48553;BME280;34335;51.566;6.994;2023-08-12T00:47:09;101143.59;;;22.35;100.00
48553;BME280;34335;51.566;6.994;2023-08-12T00:49:34;101143.63;;;22.34;100.00
48553;BME280;34335;51.566;6.994;2023-08-12T00:52:02;101142.00;;;22.31;100.00
48553;BME280;34335;51.566;6.994;2023-08-12T00:54:27;101142.84;;;22.32;100.00
48553;BME280;34335;51.566;6.994;2023-08-12T00:56:53;101140.25;;;22.30;100.00
48553;BME280;34335;51.566;6.994;2023-08-12T00:59:19;101137.63;;;22.30;100.00
48553;BME280;34335;51.566;6.994;2023-08-12T01:01:45;101137.69;;;22.29;100.00
48553;BME280;34335;51.566;6.994;2023-08-12T01:04:12;101129.78;;;22.27;100.00
48553;BME280;34335;51.566;6.994;2023-08-12T01:06:38;101128.88;;;22.28;100.00
48553;BME280;34335;51.566;6.994;2023-08-12T01:09:04;101127.13;;;22.27;100.00
48553;BME280;34335;51.566;6.994;2023-08-12T01:11:39;101116.75;;;22.22;100.00
48553;BME280;34335;51.566;6.994;2023-08-12T01:14:18;101122.13;;;22.21;100.00
48553;BME280;34335;51.566;6.994;2023-08-12T01:16:50;101127.34;;;22.22;100.00
48553;BME280;34335;51.566;6.994;2023-08-12T01:19:37;101128.50;;;22.17;100.00
48553;BME280;34335;51.566;6.994;2023-08-12T01:22:04;101119.03;;;22.11;100.00
48553;BME280;34335;51.566;6.994;2023-08-12T01:24:43;101121.72;;;22.09;100.00
48553;BME280;34335;51.566;6.994;2023-08-12T01:27:11;101120.88;;;22.09;100.00
48553;BME280;34335;51.566;6.994;2023-08-12T01:29:42;101114.69;;;22.08;100.00
48553;BME280;34335;51.566;6.994;2023-08-12T01:32:47;101105.19;;;22.04;100.00
48553;BME280;34335;51.566;6.994;2023-08-12T01:35:10;101107.81;;;22.04;100.00
48553;BME280;34335;51.566;6.994;2023-08-12T01:37:39;101106.94;;;22.04;100.00
48553;BME280;34335;51.566;6.994;2023-08-12T01:40:07;101105.28;;;22.01;100.00
48553;BME280;34335;51.566;6.994;2023-08-12T01:42:34;101092.06;;;22.01;100.00
48553;BME280;34335;51.566;6.994;2023-08-12T01:45:01;101086.03;;;21.98;100.00
48553;BME280;34335;51.566;6.994;2023-08-12T01:47:30;101086.13;;;21.96;100.00
48553;BME280;34335;51.566;6.994;2023-08-12T01:49:55;101086.13;;;21.96;100.00
48553;BME280;34335;51.566;6.994;2023-08-12T01:52:21;101082.59;;;21.95;100.00
48553;BME280;34335;51.566;6.994;2023-08-12T01:54:46;101089.53;;;21.98;100.00
48553;BME280;34335;51.566;6.994;2023-08-12T01:57:12;101092.56;;;21.89;100.00
48553;BME280;34335;51.566;6.994;2023-08-12T01:59:38;101094.44;;;21.87;100.00
48553;BME280;34335;51.566;6.994;2023-08-12T02:02:04;101090.06;;;21.86;100.00
48553;BME280;34335;51.566;6.994;2023-08-12T02:04:29;101094.03;;;21.75;100.00
48553;BME280;34335;51.566;6.994;2023-08-12T02:06:55;101087.16;;;21.92;100.00
48553;BME280;34335;51.566;6.994;2023-08-12T02:09:21;101086.69;;;21.82;100.00
48553;BME280;34335;51.566;6.994;2023-08-12T02:11:48;101091.00;;;21.85;100.00
48553;BME280;34335;51.566;6.994;2023-08-12T02:14:13;101085.69;;;21.85;100.00
48553;BME280;34335;51.566;6.994;2023-08-12T02:16:38;101088.44;;;21.83;100.00
48553;BME280;34335;51.566;6.994;2023-08-12T02:19:04;101085.97;;;21.78;100.00
48553;BME280;34335;51.566;6.994;2023-08-12T02:21:29;101076.03;;;21.84;100.00
48553;BME280;34335;51.566;6.994;2023-08-12T02:23:54;101077.47;;;21.70;100.00
48553;BME280;34335;51.566;6.994;2023-08-12T02:26:20;101071.22;;;21.73;100.00
48553;BME280;34335;51.566;6.994;2023-08-12T02:28:45;101064.31;;;21.46;100.00
48553;BME280;34335;51.566;6.994;2023-08-12T02:31:10;101063.47;;;21.68;100.00
48553;BME280;34335;51.566;6.994;2023-08-12T02:33:36;101063.78;;;21.60;100.00
48553;BME280;34335;51.566;6.994;2023-08-12T02:36:01;101057.09;;;21.72;100.00
48553;BME280;34335;51.566;6.994;2023-08-12T02:38:26;101049.63;;;21.82;100.00
48553;BME280;34335;51.566;6.994;2023-08-12T02:40:52;101049.63;;;21.61;100.00
48553;BME280;34335;51.566;6.994;2023-08-12T02:43:17;101048.22;;;21.73;100.00
48553;BME280;34335;51.566;6.994;2023-08-12T02:45:43;101050.44;;;21.63;100.00
48553;BME280;34335;51.566;6.994;2023-08-12T02:48:11;101050.34;;;21.65;100.00
48553;BME280;34335;51.566;6.994;2023-08-12T02:50:37;101045.84;;;21.67;100.00
48553;BME280;34335;51.566;6.994;2023-08-12T02:53:04;101045.72;;;21.70;100.00
48553;BME280;34335;51.566;6.994;2023-08-12T02:55:29;101037.19;;;21.63;100.00
48553;BME280;34335;51.566;6.994;2023-08-12T02:57:57;101037.47;;;21.56;100.00
48553;BME280;34335;51.566;6.994;2023-08-12T03:00:22;101037.75;;;21.50;100.00
48553;BME280;34335;51.566;6.994;2023-08-12T03:02:47;101037.75;;;21.50;100.00
48553;BME280;34335;51.566;6.994;2023-08-12T03:05:12;101032.28;;;21.53;100.00
48553;BME280;34335;51.566;6.994;2023-08-12T03:07:38;101026.53;;;21.65;100.00
48553;BME280;34335;51.566;6.994;2023-08-12T03:10:04;101025.81;;;21.61;100.00
48553;BME280;34335;51.566;6.994;2023-08-12T03:12:29;101025.47;;;21.47;100.00
48553;BME280;34335;51.566;6.994;2023-08-12T03:14:54;101019.41;;;21.67;100.00
48553;BME280;34335;51.566;6.994;2023-08-12T03:17:19;101012.06;;;21.52;100.00
48553;BME280;34335;51.566;6.994;2023-08-12T03:19:45;101019.06;;;21.53;100.00
48553;BME280;34335;51.566;6.994;2023-08-12T03:22:10;101016.22;;;21.59;100.00
48553;BME280;34335;51.566;6.994;2023-08-12T03:24:36;101008.38;;;21.56;100.00
48553;BME280;34335;51.566;6.994;2023-08-12T03:27:01;101015.09;;;21.42;100.00
48553;BME280;34335;51.566;6.994;2023-08-12T03:29:26;101015.34;;;21.36;100.00
48553;BME280;34335;51.566;6.994;2023-08-12T03:31:52;101005.31;;;21.44;100.00
48553;BME280;34335;51.566;6.994;2023-08-12T03:34:17;101011.63;;;21.20;100.00
48553;BME280;34335;51.566;6.994;2023-08-12T03:36:42;101002.31;;;21.31;100.00
48553;BME280;34335;51.566;6.994;2023-08-12T03:39:08;101005.63;;;21.37;100.00
48553;BME280;34335;51.566;6.994;2023-08-12T03:41:33;100999.84;;;21.27;100.00
48553;BME280;34335;51.566;6.994;2023-08-12T03:43:58;100995.66;;;21.43;100.00
48553;BME280;34335;51.566;6.994;2023-08-12T03:46:24;101002.19;;;21.35;100.00
48553;BME280;34335;51.566;6.994;2023-08-12T03:48:49;100994.06;;;21.39;100.00
48553;BME280;34335;51.566;6.994;2023-08-12T03:51:15;101003.31;;;21.29;100.00
48553;BME280;34335;51.566;6.994;2023-08-12T03:53:40;101006.88;;;21.28;100.00
48553;BME280;34335;51.566;6.994;2023-08-12T03:56:05;101001.53;;;21.07;100.00
48553;BME280;34335;51.566;6.994;2023-08-12T03:58:31;100999.06;;;21.02;100.00
48553;BME280;34335;51.566;6.994;2023-08-12T04:00:56;101002.19;;;21.12;100.00
48553;BME280;34335;51.566;6.994;2023-08-12T04:03:21;100997.16;;;21.06;100.00
48553;BME280;34335;51.566;6.994;2023-08-12T04:05:50;100989.41;;;21.01;100.00
48553;BME280;34335;51.566;6.994;2023-08-12T04:08:21;100986.88;;;20.76;100.00
48553;BME280;34335;51.566;6.994;2023-08-12T04:10:47;100985.72;;;20.83;100.00
48553;BME280;34335;51.566;6.994;2023-08-12T04:13:13;100989.66;;;20.95;100.00
48553;BME280;34335;51.566;6.994;2023-08-12T04:15:39;100987.94;;;21.16;100.00
48553;BME280;34335;51.566;6.994;2023-08-12T04:18:04;100982.53;;;21.20;100.00
48553;BME280;34335;51.566;6.994;2023-08-12T04:20:30;100987.75;;;21.21;100.00
48553;BME280;34335;51.566;6.994;2023-08-12T04:22:55;100986.75;;;21.24;100.00
48553;BME280;34335;51.566;6.994;2023-08-12T04:25:21;100975.19;;;21.26;100.00
48553;BME280;34335;51.566;6.994;2023-08-12T04:27:47;100976.84;;;21.29;100.00
48553;BME280;34335;51.566;6.994;2023-08-12T04:30:13;100976.91;;;21.27;100.00
48553;BME280;34335;51.566;6.994;2023-08-12T04:32:39;100966.31;;;21.27;100.00
48553;BME280;34335;51.566;6.994;2023-08-12T04:35:04;100967.06;;;21.31;100.00
48553;BME280;34335;51.566;6.994;2023-08-12T04:37:30;100956.53;;;21.29;100.00
48553;BME280;34335;51.566;6.994;2023-08-12T04:39:57;100946.88;;;21.28;100.00
48553;BME280;34335;51.566;6.994;2023-08-12T04:42:22;100940.78;;;21.26;100.00
48553;BME280;34335;51.566;6.994;2023-08-12T04:44:48;100937.31;;;21.26;100.00
48553;BME280;34335;51.566;6.994;2023-08-12T04:47:13;100938.63;;;21.36;100.00
48553;BME280;34335;51.566;6.994;2023-08-12T04:49:38;100936.38;;;21.27;100.00
48553;BME280;34335;51.566;6.994;2023-08-12T04:52:04;100932.09;;;21.24;100.00
48553;BME280;34335;51.566;6.994;2023-08-12T04:54:30;100931.22;;;21.24;100.00
48553;BME280;34335;51.566;6.994;2023-08-12T04:56:55;100932.13;;;21.23;100.00
48553;BME280;34335;51.566;6.994;2023-08-12T04:59:21;100932.09;;;21.24;100.00
48553;BME280;34335;51.566;6.994;2023-08-12T05:01:47;100937.19;;;21.07;100.00
48553;BME280;34335;51.566;6.994;2023-08-12T05:04:12;100933.44;;;21.12;100.00
48553;BME280;34335;51.566;6.994;2023-08-12T05:06:38;100928.72;;;21.21;100.00
48553;BME280;34335;51.566;6.994;2023-08-12T05:09:03;100925.69;;;21.30;100.00
48553;BME280;34335;51.566;6.994;2023-08-12T05:11:28;100930.59;;;21.39;100.00
48553;BME280;34335;51.566;6.994;2023-08-12T05:13:54;100933.03;;;21.44;100.00
48553;BME280;34335;51.566;6.994;2023-08-12T05:16:19;100919.72;;;21.45;100.00
48553;BME280;34335;51.566;6.994;2023-08-12T05:18:44;100920.44;;;21.49;100.00
48553;BME280;34335;51.566;6.994;2023-08-12T05:21:10;100916.97;;;21.48;100.00
48553;BME280;34335;51.566;6.994;2023-08-12T05:23:35;100923.16;;;21.47;100.00
48553;BME280;34335;51.566;6.994;2023-08-12T05:26:01;100921.97;;;21.34;100.00
48553;BME280;34335;51.566;6.994;2023-08-12T05:28:26;100922.25;;;21.48;100.00
48553;BME280;34335;51.566;6.994;2023-08-12T05:30:51;100926.44;;;21.32;100.00
48553;BME280;34335;51.566;6.994;2023-08-12T05:33:20;100928.13;;;21.35;100.00
48553;BME280;34335;51.566;6.994;2023-08-12T05:35:47;100928.25;;;21.31;100.00
48553;BME280;34335;51.566;6.994;2023-08-12T05:38:13;100923.63;;;21.16;100.00
48553;BME280;34335;51.566;6.994;2023-08-12T05:40:38;100925.00;;;21.25;100.00
48553;BME280;34335;51.566;6.994;2023-08-12T05:43:03;100923.44;;;21.21;100.00
48553;BME280;34335;51.566;6.994;2023-08-12T05:45:29;100922.47;;;21.01;100.00
48553;BME280;34335;51.566;6.994;2023-08-12T05:47:54;100919.44;;;21.10;100.00
48553;BME280;34335;51.566;6.994;2023-08-12T05:50:19;100918.13;;;21.21;100.00
48553;BME280;34335;51.566;6.994;2023-08-12T05:52:45;100911.91;;;21.22;100.00
48553;BME280;34335;51.566;6.994;2023-08-12T05:55:10;100911.66;;;21.28;100.00
48553;BME280;34335;51.566;6.994;2023-08-12T05:57:35;100907.81;;;21.35;100.00
48553;BME280;34335;51.566;6.994;2023-08-12T06:00:01;100897.63;;;21.46;100.00
48553;BME280;34335;51.566;6.994;2023-08-12T06:02:26;100900.41;;;21.43;100.00
48553;BME280;34335;51.566;6.994;2023-08-12T06:04:51;100896.97;;;21.41;100.00
48553;BME280;34335;51.566;6.994;2023-08-12T06:07:17;100898.03;;;21.58;100.00
48553;BME280;34335;51.566;6.994;2023-08-12T06:09:43;100901.84;;;21.51;100.00
48553;BME280;34335;51.566;6.994;2023-08-12T06:12:09;100893.25;;;21.45;100.00
48553;BME280;34335;51.566;6.994;2023-08-12T06:14:39;100897.63;;;21.26;100.00
48553;BME280;34335;51.566;6.994;2023-08-12T06:17:05;100891.00;;;21.15;100.00
48553;BME280;34335;51.566;6.994;2023-08-12T06:19:30;100896.25;;;21.38;100.00
48553;BME280;34335;51.566;6.994;2023-08-12T06:21:55;100895.63;;;21.31;100.00
48553;BME280;34335;51.566;6.994;2023-08-12T06:24:21;100896.31;;;21.36;100.00
48553;BME280;34335;51.566;6.994;2023-08-12T06:26:46;100889.56;;;21.50;100.00
48553;BME280;34335;51.566;6.994;2023-08-12T06:29:11;100885.66;;;21.38;100.00
48553;BME280;34335;51.566;6.994;2023-08-12T06:31:37;100886.84;;;21.51;100.00
48553;BME280;34335;51.566;6.994;2023-08-12T06:34:02;100891.25;;;21.51;100.00
48553;BME280;34335;51.566;6.994;2023-08-12T06:36:27;100896.13;;;21.41;100.00
48553;BME280;34335;51.566;6.994;2023-08-12T06:38:53;100900.53;;;21.40;100.00
48553;BME280;34335;51.566;6.994;2023-08-12T06:41:18;100903.06;;;21.43;100.00
48553;BME280;34335;51.566;6.994;2023-08-12T06:43:43;100897.13;;;21.38;100.00
48553;BME280;34335;51.566;6.994;2023-08-12T06:46:09;100895.00;;;21.46;100.00
48553;BME280;34335;51.566;6.994;2023-08-12T06:48:34;100883.59;;;21.44;100.00
48553;BME280;34335;51.566;6.994;2023-08-12T06:50:59;100883.41;;;21.49;100.00
48553;BME280;34335;51.566;6.994;2023-08-12T06:53:26;100878.53;;;21.60;100.00
48553;BME280;34335;51.566;6.994;2023-08-12T06:55:51;100871.97;;;21.48;100.00
48553;BME280;34335;51.566;6.994;2023-08-12T06:58:16;100873.69;;;21.50;100.00
48553;BME280;34335;51.566;6.994;2023-08-12T07:00:42;100870.91;;;21.53;100.00
48553;BME280;34335;51.566;6.994;2023-08-12T07:03:07;100860.72;;;21.43;100.00
48553;BME280;34335;51.566;6.994;2023-08-12T07:05:33;100859.00;;;21.42;100.00
48553;BME280;34335;51.566;6.994;2023-08-12T07:07:58;100859.16;;;21.19;100.00
48553;BME280;34335;51.566;6.994;2023-08-12T07:10:23;100858.47;;;21.13;100.00
48553;BME280;34335;51.566;6.994;2023-08-12T07:12:48;100857.84;;;21.08;100.00
48553;BME280;34335;51.566;6.994;2023-08-12T07:15:14;100846.53;;;21.05;100.00
48553;BME280;34335;51.566;6.994;2023-08-12T07:17:39;100853.66;;;21.02;100.00
48553;BME280;34335;51.566;6.994;2023-08-12T07:20:06;100856.69;;;20.93;100.00
48553;BME280;34335;51.566;6.994;2023-08-12T07:22:31;100860.28;;;21.13;100.00
48553;BME280;34335;51.566;6.994;2023-08-12T07:24:56;100857.03;;;21.06;100.00
48553;BME280;34335;51.566;6.994;2023-08-12T07:27:25;100859.34;;;20.93;100.00
48553;BME280;34335;51.566;6.994;2023-08-12T07:29:50;100861.91;;;20.95;100.00
48553;BME280;34335;51.566;6.994;2023-08-12T07:32:15;100863.66;;;21.16;100.00
48553;BME280;34335;51.566;6.994;2023-08-12T07:34:40;100857.31;;;21.21;100.00
48553;BME280;34335;51.566;6.994;2023-08-12T07:37:06;100858.03;;;21.24;100.00
48553;BME280;34335;51.566;6.994;2023-08-12T07:39:31;100860.09;;;21.17;100.00
48553;BME280;34335;51.566;6.994;2023-08-12T07:41:56;100863.53;;;21.20;100.00
48553;BME280;34335;51.566;6.994;2023-08-12T07:44:22;100869.00;;;20.94;100.00
48553;BME280;34335;51.566;6.994;2023-08-12T07:46:47;100860.16;;;20.95;100.00
48553;BME280;34335;51.566;6.994;2023-08-12T07:49:12;100867.81;;;21.01;100.00
48553;BME280;34335;51.566;6.994;2023-08-12T07:51:38;100871.44;;;20.99;100.00
48553;BME280;34335;51.566;6.994;2023-08-12T07:54:03;100864.09;;;20.85;100.00
48553;BME280;34335;51.566;6.994;2023-08-12T07:56:29;100860.19;;;20.94;100.00
48553;BME280;34335;51.566;6.994;2023-08-12T07:58:54;100858.53;;;20.91;100.00
48553;BME280;34335;51.566;6.994;2023-08-12T08:01:19;100858.34;;;20.96;100.00
48553;BME280;34335;51.566;6.994;2023-08-12T08:03:44;100854.91;;;20.94;100.00
48553;BME280;34335;51.566;6.994;2023-08-12T08:06:10;100860.44;;;20.88;100.00
48553;BME280;34335;51.566;6.994;2023-08-12T08:08:35;100850.59;;;20.91;100.00
48553;BME280;34335;51.566;6.994;2023-08-12T08:11:00;100848.56;;;20.98;100.00
48553;BME280;34335;51.566;6.994;2023-08-12T08:13:26;100847.16;;;20.89;100.00
48553;BME280;34335;51.566;6.994;2023-08-12T08:15:51;100839.72;;;20.99;100.00
48553;BME280;34335;51.566;6.994;2023-08-12T08:18:16;100846.03;;;20.95;100.00
48553;BME280;34335;51.566;6.994;2023-08-12T08:20:42;100842.78;;;21.10;100.00
48553;BME280;34335;51.566;6.994;2023-08-12T08:23:08;100839.31;;;21.08;100.00
48553;BME280;34335;51.566;6.994;2023-08-12T08:25:33;100838.81;;;21.21;100.00
48553;BME280;34335;51.566;6.994;2023-08-12T08:27:58;100846.53;;;21.25;100.00
48553;BME280;34335;51.566;6.994;2023-08-12T08:30:24;100839.16;;;21.32;100.00
48553;BME280;34335;51.566;6.994;2023-08-12T08:32:51;100843.75;;;21.28;100.00
48553;BME280;34335;51.566;6.994;2023-08-12T08:35:16;100834.97;;;21.28;100.00
48553;BME280;34335;51.566;6.994;2023-08-12T08:37:41;100843.50;;;21.35;100.00
48553;BME280;34335;51.566;6.994;2023-08-12T08:40:07;100833.63;;;21.17;100.00
48553;BME280;34335;51.566;6.994;2023-08-12T08:42:33;100834.16;;;21.26;100.00
48553;BME280;34335;51.566;6.994;2023-08-12T08:45:01;100840.78;;;21.15;100.00
48553;BME280;34335;51.566;6.994;2023-08-12T08:47:27;100839.38;;;21.07;100.00
48553;BME280;34335;51.566;6.994;2023-08-12T08:49:56;100836.69;;;21.08;100.00
48553;BME280;34335;51.566;6.994;2023-08-12T08:52:23;100844.22;;;21.17;100.00
48553;BME280;34335;51.566;6.994;2023-08-12T08:54:48;100843.63;;;21.11;100.00
48553;BME280;34335;51.566;6.994;2023-08-12T08:57:14;100837.22;;;21.16;100.00
48553;BME280;34335;51.566;6.994;2023-08-12T08:59:39;100843.41;;;21.15;100.00
48553;BME280;34335;51.566;6.994;2023-08-12T09:02:09;100846.19;;;21.12;100.00
48553;BME280;34335;51.566;6.994;2023-08-12T09:04:38;100844.13;;;20.98;100.00
48553;BME280;34335;51.566;6.994;2023-08-12T09:07:04;100840.25;;;21.07;100.00
48553;BME280;34335;51.566;6.994;2023-08-12T09:09:30;100843.69;;;21.09;100.00
48553;BME280;34335;51.566;6.994;2023-08-12T09:11:56;100848.59;;;21.19;100.00
48553;BME280;34335;51.566;6.994;2023-08-12T09:14:21;100848.97;;;21.09;100.00
48553;BME280;34335;51.566;6.994;2023-08-12T09:16:47;100849.75;;;21.11;100.00
48553;BME280;34335;51.566;6.994;2023-08-12T09:19:12;100847.09;;;21.11;100.00
48553;BME280;34335;51.566;6.994;2023-08-12T09:21:38;100851.66;;;21.08;100.00
48553;BME280;34335;51.566;6.994;2023-08-12T09:24:03;100846.34;;;21.09;100.00
48553;BME280;34335;51.566;6.994;2023-08-12T09:26:29;100847.25;;;21.08;100.00
48553;BME280;34335;51.566;6.994;2023-08-12T09:28:55;100847.97;;;21.12;100.00
48553;BME280;34335;51.566;6.994;2023-08-12T09:31:26;100850.34;;;21.18;100.00
48553;BME280;34335;51.566;6.994;2023-08-12T09:33:53;100845.84;;;21.20;100.00
48553;BME280;34335;51.566;6.994;2023-08-12T09:36:22;100851.94;;;21.22;100.00
48553;BME280;34335;51.566;6.994;2023-08-12T09:38:47;100844.84;;;21.23;100.00
48553;BME280;34335;51.566;6.994;2023-08-12T09:41:13;100848.59;;;21.19;100.00
48553;BME280;34335;51.566;6.994;2023-08-12T09:43:41;100851.06;;;21.22;100.00
48553;BME280;34335;51.566;6.994;2023-08-12T09:46:10;100844.28;;;21.16;100.00
48553;BME280;34335;51.566;6.994;2023-08-12T09:48:37;100855.31;;;21.05;100.00
48553;BME280;34335;51.566;6.994;2023-08-12T09:51:02;100853.75;;;21.01;100.00
48553;BME280;34335;51.566;6.994;2023-08-12T09:53:28;100853.19;;;20.93;100.00
48553;BME280;34335;51.566;6.994;2023-08-12T09:55:54;100860.25;;;20.92;100.00
48553;BME280;34335;51.566;6.994;2023-08-12T09:58:22;100865.81;;;20.86;100.00
48553;BME280;34335;51.566;6.994;2023-08-12T10:00:49;100858.19;;;20.78;100.00
48553;BME280;34335;51.566;6.994;2023-08-12T10:03:17;100866.47;;;20.69;100.00
48553;BME280;34335;51.566;6.994;2023-08-12T10:05:43;100862.59;;;20.55;100.00
48553;BME280;34335;51.566;6.994;2023-08-12T10:08:09;100866.53;;;20.67;100.00
48553;BME280;34335;51.566;6.994;2023-08-12T10:10:35;100868.13;;;20.71;100.00
48553;BME280;34335;51.566;6.994;2023-08-12T10:13:01;100861.91;;;20.73;100.00
48553;BME280;34335;51.566;6.994;2023-08-12T10:15:27;100856.22;;;20.83;100.00
48553;BME280;34335;51.566;6.994;2023-08-12T10:17:53;100863.63;;;20.96;100.00
48553;BME280;34335;51.566;6.994;2023-08-12T10:20:23;100865.34;;;20.97;100.00
48553;BME280;34335;51.566;6.994;2023-08-12T10:22:49;100865.75;;;21.08;100.00
48553;BME280;34335;51.566;6.994;2023-08-12T10:25:17;100864.16;;;21.04;100.00
48553;BME280;34335;51.566;6.994;2023-08-12T10:27:43;100868.41;;;21.08;100.00
48553;BME280;34335;51.566;6.994;2023-08-12T10:30:09;100864.38;;;21.20;100.00
48553;BME280;34335;51.566;6.994;2023-08-12T10:32:35;100863.25;;;21.46;100.00
48553;BME280;34335;51.566;6.994;2023-08-12T10:35:01;100860.84;;;21.40;100.00
48553;BME280;34335;51.566;6.994;2023-08-12T10:37:31;100868.47;;;21.48;100.00
48553;BME280;34335;51.566;6.994;2023-08-12T10:39:57;100859.22;;;21.38;100.00
48553;BME280;34335;51.566;6.994;2023-08-12T10:42:43;100862.97;;;21.53;100.00
48553;BME280;34335;51.566;6.994;2023-08-12T10:45:14;100856.66;;;21.55;100.00
48553;BME280;34335;51.566;6.994;2023-08-12T10:47:41;100863.66;;;21.37;100.00
48553;BME280;34335;51.566;6.994;2023-08-12T10:50:17;100861.81;;;21.39;100.00
48553;BME280;34335;51.566;6.994;2023-08-12T10:52:43;100858.34;;;21.37;100.00
48553;BME280;34335;51.566;6.994;2023-08-12T10:57:43;100856.88;;;21.51;100.00
48553;BME280;34335;51.566;6.994;2023-08-12T11:00:17;100856.16;;;21.47;100.00
48553;BME280;34335;51.566;6.994;2023-08-12T11:02:46;100862.06;;;21.33;100.00
48553;BME280;34335;51.566;6.994;2023-08-12T11:05:13;100852.91;;;21.40;100.00
48553;BME280;34335;51.566;6.994;2023-08-12T11:08:01;100852.28;;;21.35;100.00
48553;BME280;34335;51.566;6.994;2023-08-12T11:10:33;100848.63;;;21.38;100.00
48553;BME280;34335;51.566;6.994;2023-08-12T11:12:59;100848.50;;;21.41;100.00
48553;BME280;34335;51.566;6.994;2023-08-12T11:17:58;100836.00;;;21.44;100.00
48553;BME280;34335;51.566;6.994;2023-08-12T11:20:24;100845.38;;;21.52;100.00
48553;BME280;34335;51.566;6.994;2023-08-12T11:22:50;100837.97;;;21.60;100.00
48553;BME280;34335;51.566;6.994;2023-08-12T11:25:15;100836.84;;;21.66;100.00
48553;BME280;34335;51.566;6.994;2023-08-12T11:27:42;100832.91;;;21.93;100.00
48553;BME280;34335;51.566;6.994;2023-08-12T11:30:10;100834.59;;;21.96;100.00
48553;BME280;34335;51.566;6.994;2023-08-12T11:32:37;100822.69;;;22.05;100.00
48553;BME280;34335;51.566;6.994;2023-08-12T11:35:04;100822.56;;;22.08;100.00
48553;BME280;34335;51.566;6.994;2023-08-12T11:37:31;100822.31;;;22.13;100.00
48553;BME280;34335;51.566;6.994;2023-08-12T11:39:56;100824.19;;;22.10;100.00
48553;BME280;34335;51.566;6.994;2023-08-12T11:42:22;100825.38;;;22.22;100.00
48553;BME280;34335;51.566;6.994;2023-08-12T11:44:47;100825.94;;;22.29;100.00
48553;BME280;34335;51.566;6.994;2023-08-12T11:47:13;100824.84;;;22.16;100.00
48553;BME280;34335;51.566;6.994;2023-08-12T11:49:38;100824.53;;;22.22;100.00
48553;BME280;34335;51.566;6.994;2023-08-12T11:52:04;100826.25;;;22.23;100.00
48553;BME280;34335;51.566;6.994;2023-08-12T11:54:29;100831.69;;;21.82;100.00
48553;BME280;34335;51.566;6.994;2023-08-12T11:56:55;100838.72;;;21.83;100.00
48553;BME280;34335;51.566;6.994;2023-08-12T11:59:22;100845.69;;;21.64;100.00
48553;BME280;34335;51.566;6.994;2023-08-12T12:01:50;100836.88;;;21.24;100.00
48553;BME280;34335;51.566;6.994;2023-08-12T12:04:16;100843.94;;;21.44;100.00
48553;BME280;34335;51.566;6.994;2023-08-12T12:06:44;100845.53;;;21.48;100.00
48553;BME280;34335;51.566;6.994;2023-08-12T12:09:09;100844.00;;;21.83;100.00
48553;BME280;34335;51.566;6.994;2023-08-12T12:11:36;100840.84;;;21.93;100.00
48553;BME280;34335;51.566;6.994;2023-08-12T12:14:06;100845.09;;;21.78;100.00
48553;BME280;34335;51.566;6.994;2023-08-12T12:16:46;100837.38;;;21.93;100.00
48553;BME280;34335;51.566;6.994;2023-08-12T12:19:17;100833.72;;;21.95;100.00
48553;BME280;34335;51.566;6.994;2023-08-12T12:21:45;100838.59;;;21.86;100.00
48553;BME280;34335;51.566;6.994;2023-08-12T12:24:11;100836.44;;;21.94;100.00
48553;BME280;34335;51.566;6.994;2023-08-12T12:26:36;100832.00;;;21.75;100.00
48553;BME280;34335;51.566;6.994;2023-08-12T12:29:05;100828.06;;;22.03;100.00
48553;BME280;34335;51.566;6.994;2023-08-12T12:31:35;100819.47;;;21.98;100.00
48553;BME280;34335;51.566;6.994;2023-08-12T12:34:01;100830.06;;;22.17;100.00
48553;BME280;34335;51.566;6.994;2023-08-12T12:36:28;100829.38;;;22.31;100.00
48553;BME280;34335;51.566;6.994;2023-08-12T12:38:53;100829.84;;;22.41;100.00
48553;BME280;34335;51.566;6.994;2023-08-12T12:41:18;100826.31;;;22.40;100.00